sensor_id;sensor_type;location;lat;lon;timestamp;pressure;altitude;pressure_sealevel;temperature;humidity
75072;BME280;63651;55.728;38.022;2023-12-07T00:01:44;101318.50;;;13.02;nan
75072;BME280;63651;55.728;38.022;2023-12-07T00:06:45;101323.59;;;12.97;nan
75072;BME280;63651;55.728;38.022;2023-12-07T00:11:46;101331.47;;;12.92;nan
75072;BME280;63651;55.728;38.022;2023-12-07T00:16:47;101333.50;;;12.90;nan
75072;BME280;63651;55.728;38.022;2023-12-07T00:21:48;101335.22;;;12.91;nan
75072;BME280;63651;55.728;38.022;2023-12-07T00:26:49;101333.69;;;12.89;nan
75072;BME280;63651;55.728;38.022;2023-12-07T00:31:50;101341.53;;;12.92;nan
75072;BME280;63651;55.728;38.022;2023-12-07T00:36:52;101337.09;;;12.91;nan
75072;BME280;63651;55.728;38.022;2023-12-07T00:41:53;101332.66;;;12.90;nan
75072;BME280;63651;55.728;38.022;2023-12-07T00:46:54;101348.00;;;12.91;nan
75072;BME280;63651;55.728;38.022;2023-12-07T00:51:55;101348.19;;;12.89;nan
75072;BME280;63651;55.728;38.022;2023-12-07T00:56:56;101351.59;;;12.91;nan
75072;BME280;63651;55.728;38.022;2023-12-07T01:01:59;101349.38;;;12.87;nan
75072;BME280;63651;55.728;38.022;2023-12-07T01:07:00;101343.41;;;12.91;nan
75072;BME280;63651;55.728;38.022;2023-12-07T01:12:01;101336.09;;;12.83;nan
75072;BME280;63651;55.728;38.022;2023-12-07T01:17:02;101352.81;;;12.80;nan
75072;BME280;63651;55.728;38.022;2023-12-07T01:22:03;101344.78;;;12.87;nan
75072;BME280;63651;55.728;38.022;2023-12-07T01:27:04;101357.91;;;12.83;nan
75072;BME280;63651;55.728;38.022;2023-12-07T01:32:06;101363.72;;;12.80;nan
75072;BME280;63651;55.728;38.022;2023-12-07T01:37:07;101362.19;;;12.78;nan
75072;BME280;63651;55.728;38.022;2023-12-07T01:42:08;101362.19;;;12.78;nan
75072;BME280;63651;55.728;38.022;2023-12-07T01:47:10;101364.59;;;12.73;nan
75072;BME280;63651;55.728;38.022;2023-12-07T01:52:11;101378.06;;;12.74;nan
75072;BME280;63651;55.728;38.022;2023-12-07T01:57:12;101381.63;;;12.75;nan
75072;BME280;63651;55.728;38.022;2023-12-07T02:02:14;101387.78;;;12.69;nan
75072;BME280;63651;55.728;38.022;2023-12-07T02:07:15;101382.50;;;12.67;nan
75072;BME280;63651;55.728;38.022;2023-12-07T02:12:16;101380.97;;;12.65;nan
75072;BME280;63651;55.728;38.022;2023-12-07T02:17:29;101395.63;;;12.72;nan
75072;BME280;63651;55.728;38.022;2023-12-07T02:22:47;101377.25;;;12.58;nan
75072;BME280;63651;55.728;38.022;2023-12-07T02:27:49;101386.44;;;12.65;nan
75072;BME280;63651;55.728;38.022;2023-12-07T02:32:50;101406.19;;;12.75;nan
75072;BME280;63651;55.728;38.022;2023-12-07T02:37:52;101408.75;;;12.68;nan
75072;BME280;63651;55.728;38.022;2023-12-07T02:42:55;101405.34;;;12.66;nan
75072;BME280;63651;55.728;38.022;2023-12-07T02:47:57;101406.03;;;12.68;nan
75072;BME280;63651;55.728;38.022;2023-12-07T02:52:58;101388.50;;;12.55;nan
75072;BME280;63651;55.728;38.022;2023-12-07T02:58:00;101424.28;;;12.60;nan
75072;BME280;63651;55.728;38.022;2023-12-07T03:03:01;101414.72;;;12.64;nan
75072;BME280;63651;55.728;38.022;2023-12-07T03:08:02;101417.44;;;12.64;nan
75072;BME280;63651;55.728;38.022;2023-12-07T03:13:03;101427.84;;;12.68;nan
75072;BME280;63651;55.728;38.022;2023-12-07T03:18:04;101431.25;;;12.62;nan
75072;BME280;63651;55.728;38.022;2023-12-07T03:23:06;101436.72;;;12.62;nan
75072;BME280;63651;55.728;38.022;2023-12-07T03:28:07;101433.66;;;12.57;nan
75072;BME280;63651;55.728;38.022;2023-12-07T03:33:08;101446.41;;;12.65;nan
75072;BME280;63651;55.728;38.022;2023-12-07T03:38:09;101452.91;;;12.64;nan
75072;BME280;63651;55.728;38.022;2023-12-07T03:43:10;101455.28;;;12.67;nan
75072;BME280;63651;55.728;38.022;2023-12-07T03:48:11;101458.16;;;12.65;nan
75072;BME280;63651;55.728;38.022;2023-12-07T03:53:12;101464.47;;;12.66;nan
75072;BME280;63651;55.728;38.022;2023-12-07T03:58:13;101467.53;;;12.63;nan
75072;BME280;63651;55.728;38.022;2023-12-07T04:03:14;101467.53;;;12.63;nan
75072;BME280;63651;55.728;38.022;2023-12-07T04:08:15;101461.06;;;12.56;nan
75072;BME280;63651;55.728;38.022;2023-12-07T04:13:16;101481.00;;;12.56;nan
75072;BME280;63651;55.728;38.022;2023-12-07T04:18:19;101483.22;;;12.53;nan
75072;BME280;63651;55.728;38.022;2023-12-07T04:23:20;101491.56;;;12.51;nan
75072;BME280;63651;55.728;38.022;2023-12-07T04:28:21;101491.75;;;12.49;nan
75072;BME280;63651;55.728;38.022;2023-12-07T04:33:22;101491.41;;;12.53;nan
75072;BME280;63651;55.728;38.022;2023-12-07T04:38:23;101488.00;;;12.59;nan
75072;BME280;63651;55.728;38.022;2023-12-07T04:43:24;101498.06;;;12.58;nan
75072;BME280;63651;55.728;38.022;2023-12-07T04:48:25;101489.19;;;12.56;nan
75072;BME280;63651;55.728;38.022;2023-12-07T04:53:26;101494.13;;;12.53;nan
75072;BME280;63651;55.728;38.022;2023-12-07T04:58:27;101501.63;;;12.50;nan
75072;BME280;63651;55.728;38.022;2023-12-07T05:03:28;101504.69;;;12.56;nan
75072;BME280;63651;55.728;38.022;2023-12-07T05:08:29;101518.50;;;12.54;nan
75072;BME280;63651;55.728;38.022;2023-12-07T05:13:30;101511.84;;;12.57;nan
75072;BME280;63651;55.728;38.022;2023-12-07T05:18:34;101523.78;;;12.64;nan
75072;BME280;63651;55.728;38.022;2023-12-07T05:23:35;101524.28;;;12.59;nan
75072;BME280;63651;55.728;38.022;2023-12-07T05:28:36;101536.22;;;12.58;nan
75072;BME280;63651;55.728;38.022;2023-12-07T05:33:37;101544.41;;;12.58;nan
75072;BME280;63651;55.728;38.022;2023-12-07T05:38:38;101545.75;;;12.62;nan
75072;BME280;63651;55.728;38.022;2023-12-07T05:43:43;101553.75;;;12.56;nan
75072;BME280;63651;55.728;38.022;2023-12-07T05:48:44;101549.16;;;12.64;nan
75072;BME280;63651;55.728;38.022;2023-12-07T05:53:45;101549.50;;;12.61;nan
75072;BME280;63651;55.728;38.022;2023-12-07T05:58:47;101552.41;;;12.60;nan
75072;BME280;63651;55.728;38.022;2023-12-07T06:03:51;101547.28;;;12.65;nan
75072;BME280;63651;55.728;38.022;2023-12-07T06:08:52;101560.25;;;12.71;nan
75072;BME280;63651;55.728;38.022;2023-12-07T06:13:53;101560.94;;;12.73;nan
75072;BME280;63651;55.728;38.022;2023-12-07T06:18:55;101566.22;;;12.74;nan
75072;BME280;63651;55.728;38.022;2023-12-07T06:23:57;101555.66;;;12.71;nan
75072;BME280;63651;55.728;38.022;2023-12-07T06:28:59;101566.56;;;12.79;nan
75072;BME280;63651;55.728;38.022;2023-12-07T06:34:00;101576.44;;;12.89;nan
75072;BME280;63651;55.728;38.022;2023-12-07T06:39:02;101579.00;;;12.90;nan
75072;BME280;63651;55.728;38.022;2023-12-07T06:44:06;101581.56;;;12.92;nan
75072;BME280;63651;55.728;38.022;2023-12-07T06:49:07;101580.69;;;12.91;nan
75072;BME280;63651;55.728;38.022;2023-12-07T06:54:08;101583.94;;;12.95;nan
75072;BME280;63651;55.728;38.022;2023-12-07T06:59:09;101579.53;;;13.02;nan
75072;BME280;63651;55.728;38.022;2023-12-07T07:04:11;101577.16;;;13.07;nan
75072;BME280;63651;55.728;38.022;2023-12-07T07:09:12;101576.47;;;13.05;nan
75072;BME280;63651;55.728;38.022;2023-12-07T07:14:13;101583.97;;;13.11;nan
75072;BME280;63651;55.728;38.022;2023-12-07T07:19:14;101579.00;;;13.14;nan
75072;BME280;63651;55.728;38.022;2023-12-07T07:24:17;101583.13;;;13.19;nan
75072;BME280;63651;55.728;38.022;2023-12-07T07:29:18;101582.63;;;13.23;nan
75072;BME280;63651;55.728;38.022;2023-12-07T07:34:20;101581.59;;;13.24;nan
75072;BME280;63651;55.728;38.022;2023-12-07T07:39:21;101587.22;;;13.31;nan
75072;BME280;63651;55.728;38.022;2023-12-07T07:44:22;101597.09;;;13.32;nan
75072;BME280;63651;55.728;38.022;2023-12-07T07:49:23;101586.16;;;13.40;nan
75072;BME280;63651;55.728;38.022;2023-12-07T07:54:24;101588.19;;;13.46;nan
75072;BME280;63651;55.728;38.022;2023-12-07T07:59:26;101595.88;;;13.42;nan
75072;BME280;63651;55.728;38.022;2023-12-07T08:04:28;101595.19;;;13.49;nan
75072;BME280;63651;55.728;38.022;2023-12-07T08:09:29;101591.94;;;13.53;nan
75072;BME280;63651;55.728;38.022;2023-12-07T08:14:30;101602.34;;;13.50;nan
75072;BME280;63651;55.728;38.022;2023-12-07T08:19:32;101607.47;;;13.53;nan
75072;BME280;63651;55.728;38.022;2023-12-07T08:24:33;101603.88;;;13.60;nan
75072;BME280;63651;55.728;38.022;2023-12-07T08:29:35;101609.66;;;13.65;nan
75072;BME280;63651;55.728;38.022;2023-12-07T08:34:37;101609.47;;;13.67;nan
75072;BME280;63651;55.728;38.022;2023-12-07T08:39:38;101594.25;;;13.72;nan
75072;BME280;63651;55.728;38.022;2023-12-07T08:44:39;101600.59;;;13.73;nan
75072;BME280;63651;55.728;38.022;2023-12-07T08:49:40;101583.53;;;13.71;nan
75072;BME280;63651;55.728;38.022;2023-12-07T08:54:41;101588.44;;;13.75;nan
75072;BME280;63651;55.728;38.022;2023-12-07T08:59:42;101588.78;;;13.81;nan
75072;BME280;63651;55.728;38.022;2023-12-07T09:04:44;101587.06;;;13.80;nan
75072;BME280;63651;55.728;38.022;2023-12-07T09:09:45;101590.47;;;13.82;nan
75072;BME280;63651;55.728;38.022;2023-12-07T09:14:48;101584.84;;;13.83;nan
75072;BME280;63651;55.728;38.022;2023-12-07T09:19:49;101580.38;;;13.90;nan
75072;BME280;63651;55.728;38.022;2023-12-07T09:24:50;101587.53;;;13.91;nan
75072;BME280;63651;55.728;38.022;2023-12-07T09:29:51;101573.34;;;13.96;nan
75072;BME280;63651;55.728;38.022;2023-12-07T09:34:52;101576.06;;;13.96;nan
75072;BME280;63651;55.728;38.022;2023-12-07T09:39:54;101583.25;;;13.97;nan
75072;BME280;63651;55.728;38.022;2023-12-07T09:44:55;101582.84;;;14.08;nan
75072;BME280;63651;55.728;38.022;2023-12-07T09:49:57;101582.66;;;14.09;nan
75072;BME280;63651;55.728;38.022;2023-12-07T09:54:59;101592.22;;;14.14;nan
75072;BME280;63651;55.728;38.022;2023-12-07T10:00:03;101577.69;;;14.13;nan
75072;BME280;63651;55.728;38.022;2023-12-07T10:05:06;101585.91;;;14.13;nan
75072;BME280;63651;55.728;38.022;2023-12-07T10:10:08;101582.63;;;14.18;nan
75072;BME280;63651;55.728;38.022;2023-12-07T10:15:13;101579.56;;;14.13;nan
75072;BME280;63651;55.728;38.022;2023-12-07T10:20:19;101577.56;;;14.06;nan
75072;BME280;63651;55.728;38.022;2023-12-07T10:25:21;101571.72;;;14.09;nan
75072;BME280;63651;55.728;38.022;2023-12-07T10:30:22;101585.66;;;14.23;nan
75072;BME280;63651;55.728;38.022;2023-12-07T10:35:26;101583.13;;;14.21;nan
75072;BME280;63651;55.728;38.022;2023-12-07T10:40:27;101591.00;;;14.16;nan
75072;BME280;63651;55.728;38.022;2023-12-07T10:45:30;101587.09;;;14.10;nan
75072;BME280;63651;55.728;38.022;2023-12-07T10:50:35;101568.69;;;14.04;nan
75072;BME280;63651;55.728;38.022;2023-12-07T10:55:47;101576.00;;;14.12;nan
75072;BME280;63651;55.728;38.022;2023-12-07T11:00:52;101586.25;;;14.10;nan
75072;BME280;63651;55.728;38.022;2023-12-07T11:05:54;101585.75;;;14.06;nan
75072;BME280;63651;55.728;38.022;2023-12-07T11:16:35;101593.97;;;14.06;nan
75072;BME280;63651;55.728;38.022;2023-12-07T11:21:37;101575.91;;;13.97;nan
75072;BME280;63651;55.728;38.022;2023-12-07T11:26:38;101598.75;;;14.04;nan
75072;BME280;63651;55.728;38.022;2023-12-07T11:31:43;101596.69;;;14.06;nan
75072;BME280;63651;55.728;38.022;2023-12-07T11:36:45;101580.19;;;13.92;nan
75072;BME280;63651;55.728;38.022;2023-12-07T11:41:51;101580.53;;;13.89;nan
75072;BME280;63651;55.728;38.022;2023-12-07T11:46:54;101590.63;;;13.88;nan
75072;BME280;63651;55.728;38.022;2023-12-07T11:51:55;101600.00;;;13.94;nan
75072;BME280;63651;55.728;38.022;2023-12-07T11:56:57;101602.22;;;13.90;nan
75072;BME280;63651;55.728;38.022;2023-12-07T12:02:01;101602.03;;;13.92;nan
75072;BME280;63651;55.728;38.022;2023-12-07T12:07:03;101601.53;;;13.88;nan
75072;BME280;63651;55.728;38.022;2023-12-07T12:12:05;101593.72;;;13.85;nan
75072;BME280;63651;55.728;38.022;2023-12-07T12:17:06;101598.50;;;13.83;nan
75072;BME280;63651;55.728;38.022;2023-12-07T12:22:07;101596.75;;;13.90;nan
75072;BME280;63651;55.728;38.022;2023-12-07T12:27:08;101601.91;;;13.85;nan
75072;BME280;63651;55.728;38.022;2023-12-07T12:32:10;101598.50;;;13.83;nan
75072;BME280;63651;55.728;38.022;2023-12-07T12:37:11;101599.16;;;13.85;nan
75072;BME280;63651;55.728;38.022;2023-12-07T12:42:13;101603.47;;;13.80;nan
75072;BME280;63651;55.728;38.022;2023-12-07T12:47:14;101603.28;;;13.81;nan
75072;BME280;63651;55.728;38.022;2023-12-07T12:52:15;101601.94;;;13.77;nan
75072;BME280;63651;55.728;38.022;2023-12-07T12:57:19;101610.47;;;13.74;nan
75072;BME280;63651;55.728;38.022;2023-12-07T13:02:20;101595.13;;;13.73;nan
75072;BME280;63651;55.728;38.022;2023-12-07T13:07:22;101605.59;;;14.70;nan
75072;BME280;63651;55.728;38.022;2023-12-07T13:12:25;101614.47;;;14.95;nan
75072;BME280;63651;55.728;38.022;2023-12-07T13:17:29;101615.47;;;15.17;nan
75072;BME280;63651;55.728;38.022;2023-12-07T13:22:30;101609.28;;;15.90;nan
75072;BME280;63651;55.728;38.022;2023-12-07T13:27:33;101621.03;;;16.35;nan
75072;BME280;63651;55.728;38.022;2023-12-07T13:47:40;101616.38;;;17.08;nan
75072;BME280;63651;55.728;38.022;2023-12-07T13:52:44;101619.31;;;17.27;nan
75072;BME280;63651;55.728;38.022;2023-12-07T13:57:45;101627.78;;;17.33;nan
75072;BME280;63651;55.728;38.022;2023-12-07T14:02:46;101621.13;;;18.04;nan
75072;BME280;63651;55.728;38.022;2023-12-07T18:18:37;101656.88;;;15.60;nan
75072;BME280;63651;55.728;38.022;2023-12-07T18:28:41;101653.97;;;15.38;nan
75072;BME280;63651;55.728;38.022;2023-12-07T18:33:42;101651.44;;;15.14;nan
75072;BME280;63651;55.728;38.022;2023-12-07T18:38:43;101661.72;;;15.12;nan
75072;BME280;63651;55.728;38.022;2023-12-07T18:43:44;101676.31;;;15.04;nan
75072;BME280;63651;55.728;38.022;2023-12-07T18:48:45;101669.25;;;14.87;nan
75072;BME280;63651;55.728;38.022;2023-12-07T18:53:46;101672.91;;;14.80;nan
75072;BME280;63651;55.728;38.022;2023-12-07T18:58:47;101674.88;;;14.63;nan
75072;BME280;63651;55.728;38.022;2023-12-07T19:03:48;101679.06;;;14.51;nan
75072;BME280;63651;55.728;38.022;2023-12-07T19:08:49;101686.72;;;14.55;nan
75072;BME280;63651;55.728;38.022;2023-12-07T19:13:51;101674.09;;;14.54;nan
75072;BME280;63651;55.728;38.022;2023-12-07T19:18:52;101681.63;;;14.52;nan
75072;BME280;63651;55.728;38.022;2023-12-07T19:23:53;101681.31;;;14.39;nan
75072;BME280;63651;55.728;38.022;2023-12-07T19:28:56;101683.53;;;14.27;nan
75072;BME280;63651;55.728;38.022;2023-12-07T19:33:59;101677.41;;;14.25;nan
75072;BME280;63651;55.728;38.022;2023-12-07T19:39:00;101683.25;;;14.14;nan
75072;BME280;63651;55.728;38.022;2023-12-07T19:44:01;101691.34;;;13.99;nan
75072;BME280;63651;55.728;38.022;2023-12-07T19:49:02;101684.34;;;13.97;nan
75072;BME280;63651;55.728;38.022;2023-12-07T19:54:03;101690.16;;;13.94;nan
75072;BME280;63651;55.728;38.022;2023-12-07T19:59:04;101682.63;;;13.96;nan
75072;BME280;63651;55.728;38.022;2023-12-07T20:04:05;101683.00;;;13.85;nan
75072;BME280;63651;55.728;38.022;2023-12-07T20:09:07;101689.66;;;13.82;nan
75072;BME280;63651;55.728;38.022;2023-12-07T20:14:14;101681.69;;;13.64;nan
75072;BME280;63651;55.728;38.022;2023-12-07T20:19:21;101694.81;;;13.61;nan
75072;BME280;63651;55.728;38.022;2023-12-07T20:24:24;101671.44;;;13.58;nan
75072;BME280;63651;55.728;38.022;2023-12-07T20:29:25;101686.13;;;13.65;nan
75072;BME280;63651;55.728;38.022;2023-12-07T20:34:26;101689.19;;;13.62;nan
75072;BME280;63651;55.728;38.022;2023-12-07T20:39:31;101695.69;;;13.53;nan
75072;BME280;63651;55.728;38.022;2023-12-07T20:44:32;101692.28;;;13.51;nan
75072;BME280;63651;55.728;38.022;2023-12-07T20:49:33;101684.59;;;13.47;nan
75072;BME280;63651;55.728;38.022;2023-12-07T20:54:34;101696.72;;;13.44;nan
75072;BME280;63651;55.728;38.022;2023-12-07T20:59:38;101692.13;;;13.44;nan
75072;BME280;63651;55.728;38.022;2023-12-07T21:04:39;101688.19;;;13.39;nan
75072;BME280;63651;55.728;38.022;2023-12-07T21:09:41;101701.16;;;13.37;nan
75072;BME280;63651;55.728;38.022;2023-12-07T21:14:42;101691.09;;;13.37;nan
75072;BME280;63651;55.728;38.022;2023-12-07T21:19:43;101701.16;;;13.45;nan
75072;BME280;63651;55.728;38.022;2023-12-07T21:24:44;101695.69;;;13.37;nan
75072;BME280;63651;55.728;38.022;2023-12-07T21:29:45;101699.28;;;13.29;nan
75072;BME280;63651;55.728;38.022;2023-12-07T21:34:46;101691.59;;;13.33;nan
75072;BME280;63651;55.728;38.022;2023-12-07T21:39:48;101693.81;;;13.29;nan
75072;BME280;63651;55.728;38.022;2023-12-07T21:44:51;101692.81;;;13.30;nan
75072;BME280;63651;55.728;38.022;2023-12-07T21:49:52;101691.09;;;13.29;nan
75072;BME280;63651;55.728;38.022;2023-12-07T21:54:53;101684.44;;;13.24;nan
75072;BME280;63651;55.728;38.022;2023-12-07T21:59:57;101685.28;;;13.24;nan
75072;BME280;63651;55.728;38.022;2023-12-07T22:04:58;101693.16;;;13.27;nan
75072;BME280;63651;55.728;38.022;2023-12-07T22:10:00;101692.13;;;13.28;nan
75072;BME280;63651;55.728;38.022;2023-12-07T22:15:01;101688.88;;;13.33;nan
75072;BME280;63651;55.728;38.022;2023-12-07T22:20:02;101690.25;;;13.29;nan
75072;BME280;63651;55.728;38.022;2023-12-07T22:25:05;101690.75;;;13.24;nan
75072;BME280;63651;55.728;38.022;2023-12-07T22:30:06;101688.38;;;13.29;nan
75072;BME280;63651;55.728;38.022;2023-12-07T22:35:07;101684.28;;;13.25;nan
75072;BME280;63651;55.728;38.022;2023-12-07T22:40:09;101683.75;;;13.22;nan
75072;BME280;63651;55.728;38.022;2023-12-07T22:45:10;101690.59;;;13.18;nan
75072;BME280;63651;55.728;38.022;2023-12-07T22:50:11;101691.94;;;13.22;nan
75072;BME280;63651;55.728;38.022;2023-12-07T22:55:12;101696.72;;;13.28;nan
75072;BME280;63651;55.728;38.022;2023-12-07T23:00:14;101691.94;;;13.22;nan
75072;BME280;63651;55.728;38.022;2023-12-07T23:52:18;101685.59;;;13.05;nan
75072;BME280;63651;55.728;38.022;2023-12-07T23:57:19;101677.41;;;13.05;nan
